»·PEaware :: N2MR 54CL-L45

N2MR :: 54CL-L45

FLIGHT INFORMATION

Flight Status: Arrived
Operator: Privately registered:
United States
More flights under this callsign
Pilot: Gavin B. (14546)
Aircraft: PIPER PA-30 TWIN COMANCHE
(PA30)
More flights by this aircraft type
Origin: 54CL Lake Riverside Estates
United States
Destination: L45 Bakersfield Mun
United States
More flights between these airports :: More routes between these airports
Route:
File this flight plan on PilotEdge
Remarks: VFR
Altitude:
(Current/Filed)
14,500ft
Speed:
(Current/Filed)
150kts
Departed: 01-Jul-17 12:30 AM
Arrived: 01-Jul-17 01:31 AM
Distance/Time
Traveled:
154nm/1:01
Distance/Time
To Go:
Arrived

Flight Plot

Page will automatically refresh every two minutes.

Flight plan parsing failed; only flown route is shown


Map Options




Map Legend


Flown Route
Filed Route
Departure Airport
Arrival Airport
Navaid (VOR, NDB)
Fix

Horizontal Profiles

Position Reports

Time Latitude Longitude Heading Altitude Ground
Speed
01-Jul-17 00:22 33.519567 -116.795817 0 3412ft 0kts
01-Jul-17 00:23 33.519568 -116.795817 359 3412ft 0kts
01-Jul-17 00:24 33.519568 -116.795817 359 3412ft 0kts
01-Jul-17 00:25 33.519568 -116.795817 359 3412ft 0kts
01-Jul-17 00:26 33.519568 -116.795817 359 3412ft 0kts
01-Jul-17 00:27 33.519568 -116.795817 359 3412ft 0kts
01-Jul-17 00:28 33.519567 -116.795817 0 3412ft 0kts
01-Jul-17 00:29 33.519677 -116.795814 1 3412ft 0kts
01-Jul-17 00:30 33.519758 -116.795423 109 3412ft 7kts
01-Jul-17 00:31 33.519044 -116.792612 113 3412ft 0kts
01-Jul-17 00:32 33.519130 -116.791728 295 3412ft 6kts
01-Jul-17 00:33 33.527386 -116.811257 301 4040ft 112kts
01-Jul-17 00:34 33.549449 -116.840735 328 5309ft 149kts
01-Jul-17 00:35 33.584196 -116.873273 316 6154ft 163kts
01-Jul-17 00:36 33.617354 -116.910404 310 7048ft 165kts
01-Jul-17 00:37 33.647620 -116.946792 313 7938ft 148kts
01-Jul-17 00:38 33.676786 -116.981171 312 8619ft 149kts
01-Jul-17 00:39 33.705951 -117.015764 312 9306ft 149kts
01-Jul-17 00:40 33.734594 -117.049823 311 9987ft 150kts
01-Jul-17 00:41 33.764156 -117.085000 311 10682ft 150kts
01-Jul-17 00:42 33.793692 -117.120176 311 11373ft 149kts
01-Jul-17 00:43 33.822802 -117.154893 311 12057ft 148kts
01-Jul-17 00:44 33.851732 -117.189428 310 12744ft 146kts
01-Jul-17 00:45 33.880125 -117.223351 310 13426ft 144kts
01-Jul-17 00:46 33.908200 -117.256926 310 14109ft 141kts
01-Jul-17 00:47 33.936041 -117.290335 310 14523ft 153kts
01-Jul-17 00:48 33.967751 -117.328381 311 14515ft 166kts
01-Jul-17 00:49 34.000910 -117.368129 311 14490ft 171kts
01-Jul-17 00:50 34.034460 -117.408415 311 14446ft 170kts
01-Jul-17 00:51 34.067367 -117.447981 311 14446ft 167kts
01-Jul-17 00:52 34.100105 -117.487399 311 14446ft 166kts
01-Jul-17 00:53 34.132723 -117.526714 311 14446ft 166kts
01-Jul-17 00:54 34.165341 -117.566076 311 14446ft 166kts
01-Jul-17 00:55 34.197785 -117.605277 311 14447ft 167kts
01-Jul-17 00:56 34.230424 -117.644748 311 14473ft 167kts
01-Jul-17 00:57 34.263014 -117.684220 310 14476ft 167kts
01-Jul-17 00:58 34.295813 -117.723981 310 14476ft 167kts
01-Jul-17 00:59 34.328446 -117.763592 310 14476ft 167kts
01-Jul-17 01:00 34.360984 -117.803129 310 14476ft 167kts
01-Jul-17 01:01 34.388220 -117.836264 310 14476ft 167kts
01-Jul-17 01:02 34.420942 -117.876115 310 14475ft 167kts
01-Jul-17 01:03 34.453606 -117.915940 310 14475ft 167kts
01-Jul-17 01:04 34.486176 -117.955698 310 14475ft 167kts
01-Jul-17 01:05 34.518444 -117.995133 310 14475ft 167kts
01-Jul-17 01:06 34.551048 -118.035025 310 14448ft 168kts
01-Jul-17 01:07 34.583680 -118.074997 310 14448ft 167kts
01-Jul-17 01:08 34.616094 -118.114758 310 14425ft 167kts
01-Jul-17 01:09 34.648601 -118.154668 310 14420ft 167kts
01-Jul-17 01:10 34.681058 -118.194569 310 14420ft 166kts
01-Jul-17 01:11 34.707445 -118.236185 299 14447ft 163kts
01-Jul-17 01:12 34.731906 -118.282545 299 14447ft 164kts
01-Jul-17 01:13 34.756027 -118.328759 299 14447ft 164kts
01-Jul-17 01:14 34.780311 -118.375427 299 14447ft 164kts
01-Jul-17 01:15 34.804260 -118.421487 299 14450ft 164kts
01-Jul-17 01:16 34.828061 -118.467353 298 14600ft 159kts
01-Jul-17 01:17 34.851992 -118.513584 298 14610ft 163kts
01-Jul-17 01:18 34.876272 -118.560506 298 14609ft 164kts
01-Jul-17 01:19 34.900140 -118.606732 298 13710ft 152kts
01-Jul-17 01:20 34.922044 -118.649355 300 12291ft 149kts
01-Jul-17 01:21 34.945299 -118.694488 300 10878ft 175kts
01-Jul-17 01:22 34.971860 -118.745934 300 9097ft 177kts
01-Jul-17 01:23 34.997163 -118.795173 300 7098ft 170kts
01-Jul-17 01:24 35.020773 -118.841169 300 5215ft 166kts
01-Jul-17 01:25 35.049106 -118.881035 316 3708ft 151kts
01-Jul-17 01:26 35.080328 -118.915381 316 3184ft 169kts
01-Jul-17 01:27 35.117274 -118.955980 316 3172ft 184kts
01-Jul-17 01:28 35.155779 -118.997351 318 3169ft 186kts
01-Jul-17 01:29 35.197068 -119.026709 8 3037ft 137kts
01-Jul-17 01:30 35.227786 -119.007343 33 2468ft 136kts
01-Jul-17 01:31 35.255761 -118.987475 356 1472ft 107kts
01-Jul-17 01:32 35.282665 -118.990887 356 1095ft 95kts
01-Jul-17 01:33 35.309093 -118.994110 356 620ft 97kts
01-Jul-17 01:34 35.328094 -118.996384 354 377ft 20kts
01-Jul-17 01:35 35.329661 -118.997101 84 377ft 0kts
01-Jul-17 01:36 35.329661 -118.997101 84 377ft 0kts
01-Jul-17 01:37 35.329661 -118.997101 84 377ft 0kts

Navigation Log

Ident Type
Flight plan parsing failed, navigation log unavailable